createdAt,value
2023-01-18T00:01:27.958Z,95324.00
2023-01-18T00:06:49.450Z,95326.00
2023-01-18T00:12:10.600Z,95319.00
2023-01-18T00:17:32.001Z,95318.00
2023-01-18T00:22:53.977Z,95315.00
2023-01-18T00:28:21.946Z,95309.00
2023-01-18T00:33:47.730Z,95317.00
2023-01-18T00:39:09.159Z,95309.00
2023-01-18T00:44:30.413Z,95317.00
2023-01-18T00:49:51.981Z,95314.00
2023-01-18T00:55:15.038Z,95329.00
2023-01-18T01:00:36.306Z,95326.00
2023-01-18T01:06:16.379Z,95318.00
2023-01-18T01:11:37.943Z,95321.00
2023-01-18T01:17:17.660Z,95324.00
2023-01-18T01:22:57.774Z,95320.00
2023-01-18T01:28:19.905Z,95320.00
2023-01-18T01:33:42.210Z,95325.00
2023-01-18T01:39:03.553Z,95315.00
2023-01-18T01:44:25.230Z,95323.00
2023-01-18T01:49:50.729Z,95314.00
2023-01-18T01:55:21.410Z,95299.00
2023-01-18T02:00:43.228Z,95311.00
2023-01-18T02:06:16.564Z,95306.00
2023-01-18T02:11:38.558Z,95315.00
2023-01-18T02:17:06.057Z,95310.00
2023-01-18T02:22:48.549Z,95315.00
2023-01-18T02:28:19.610Z,95311.00
2023-01-18T02:33:48.626Z,95330.00
2023-01-18T02:39:23.594Z,95329.00
2023-01-18T02:45:06.159Z,95337.00
2023-01-18T02:50:28.567Z,95318.00
2023-01-18T02:57:24.314Z,95313.00
2023-01-18T03:02:56.571Z,95318.00
2023-01-18T03:08:29.928Z,95311.00
2023-01-18T03:14:10.990Z,95301.00
2023-01-18T03:20:05.894Z,95301.00
2023-01-18T03:25:36.758Z,95300.00
2023-01-18T03:31:21.383Z,95320.00
2023-01-18T03:36:49.374Z,95310.00
2023-01-18T03:42:19.805Z,95311.00
2023-01-18T03:47:41.482Z,95312.00
2023-01-18T03:53:09.854Z,95296.00
2023-01-18T03:58:36.273Z,95306.00
2023-01-18T04:03:57.531Z,95304.00
2023-01-18T04:09:19.299Z,95318.00
2023-01-18T04:14:40.870Z,95322.00
2023-01-18T04:20:02.302Z,95341.00
2023-01-18T04:25:23.845Z,95325.00
2023-01-18T04:30:45.319Z,95327.00
2023-01-18T04:36:07.258Z,95347.00
2023-01-18T04:41:28.759Z,95348.00
2023-01-18T04:46:51.168Z,95356.00
2023-01-18T04:52:12.455Z,95352.00
2023-01-18T04:57:34.256Z,95337.00
2023-01-18T05:02:55.774Z,95348.00
2023-01-18T05:08:17.954Z,95349.00
2023-01-18T05:13:39.884Z,95350.00
2023-01-18T05:19:01.428Z,95354.00
2023-01-18T05:24:28.851Z,95350.00
2023-01-18T05:29:51.613Z,95350.00
2023-01-18T05:35:12.802Z,95349.00
2023-01-18T05:40:34.031Z,95372.00
2023-01-18T05:45:55.759Z,95388.00
2023-01-18T05:51:17.002Z,95385.00
2023-01-18T05:56:38.770Z,95398.00
2023-01-18T06:02:00.151Z,95396.00
2023-01-18T06:07:21.664Z,95393.00
2023-01-18T06:12:44.152Z,95388.00
2023-01-18T06:18:05.608Z,95385.00
2023-01-18T06:23:27.354Z,95384.00
2023-01-18T06:28:48.921Z,95389.00
2023-01-18T06:34:10.152Z,95394.00
2023-01-18T06:39:31.559Z,95402.00
2023-01-18T06:44:52.869Z,95411.00
2023-01-18T06:50:14.420Z,95416.00
2023-01-18T06:55:35.917Z,95428.00
2023-01-18T07:00:59.663Z,95426.00
2023-01-18T07:06:21.744Z,95439.00
2023-01-18T07:11:43.585Z,95435.00
2023-01-18T07:17:04.970Z,95458.00
2023-01-18T07:22:26.617Z,95469.00
2023-01-18T07:27:49.265Z,95460.00
2023-01-18T07:33:11.675Z,95465.00
2023-01-18T07:38:33.990Z,95462.00
2023-01-18T07:43:55.972Z,95487.00
2023-01-18T07:49:17.622Z,95471.00
2023-01-18T07:54:38.751Z,95483.00
2023-01-18T08:00:00.243Z,95479.00
2023-01-18T08:05:24.243Z,95494.00
2023-01-18T08:10:45.957Z,95502.00
2023-01-18T08:16:11.288Z,95507.00
2023-01-18T08:21:33.747Z,95511.00
2023-01-18T08:26:54.919Z,95531.00
2023-01-18T08:32:16.636Z,95536.00
2023-01-18T08:37:38.881Z,95537.00
2023-01-18T08:43:02.497Z,95539.00
2023-01-18T08:48:24.048Z,95552.00
2023-01-18T08:53:46.778Z,95551.00
2023-01-18T08:59:11.225Z,95568.00
2023-01-18T09:04:34.016Z,95578.00
2023-01-18T09:09:55.199Z,95577.00
2023-01-18T09:15:18.275Z,95575.00
2023-01-18T09:20:39.848Z,95588.00
2023-01-18T09:26:06.818Z,95593.00
2023-01-18T09:31:29.630Z,95588.00
2023-01-18T09:36:52.296Z,95605.00
2023-01-18T09:42:23.126Z,95609.00
2023-01-18T09:47:47.386Z,95607.00
2023-01-18T09:53:32.732Z,95611.00
2023-01-18T09:59:19.403Z,95614.00
2023-01-18T10:04:47.821Z,95615.00
2023-01-18T10:10:19.166Z,95614.00
2023-01-18T10:15:41.709Z,95619.00
2023-01-18T10:21:07.121Z,95621.00
2023-01-18T10:26:31.391Z,95627.00
2023-01-18T10:32:03.296Z,95636.00
2023-01-18T10:37:40.457Z,95643.00
2023-01-18T10:43:04.502Z,95646.00
2023-01-18T10:48:34.095Z,95650.00
2023-01-18T10:53:56.463Z,95658.00
2023-01-18T10:59:40.077Z,95662.00
2023-01-18T11:05:08.208Z,95658.00
2023-01-18T11:10:29.678Z,95669.00
2023-01-18T11:16:05.854Z,95666.00
2023-01-18T11:21:33.271Z,95669.00
2023-01-18T11:26:56.687Z,95682.00
2023-01-18T11:32:27.065Z,95680.00
2023-01-18T11:37:49.050Z,95689.00
2023-01-18T11:43:19.522Z,95691.00
2023-01-18T11:49:09.947Z,95705.00
2023-01-18T11:54:38.952Z,95720.00
2023-01-18T12:00:00.272Z,95718.00
2023-01-18T12:05:50.080Z,95740.00
2023-01-18T12:11:37.262Z,95737.00
2023-01-18T12:17:20.677Z,95742.00
2023-01-18T12:23:19.154Z,95742.00
2023-01-18T12:29:12.070Z,95753.00
2023-01-18T12:34:54.645Z,95758.00
2023-01-18T12:40:48.179Z,95765.00
2023-01-18T12:46:27.688Z,95775.00
2023-01-18T12:51:53.268Z,95785.00
2023-01-18T12:57:17.167Z,95792.00
2023-01-18T13:02:44.513Z,95796.00
2023-01-18T13:08:30.087Z,95805.00
2023-01-18T13:14:07.241Z,95803.00
2023-01-18T13:20:02.355Z,95816.00
2023-01-18T13:25:50.039Z,95830.00
2023-01-18T13:31:12.132Z,95839.00
2023-01-18T13:36:44.910Z,95846.00
2023-01-18T13:42:24.497Z,95854.00
2023-01-18T13:47:54.099Z,95866.00
2023-01-18T13:53:15.624Z,95873.00
2023-01-18T13:58:38.773Z,95891.00
2023-01-18T14:04:19.448Z,95901.00
2023-01-18T14:09:47.986Z,95897.00
2023-01-18T14:15:29.207Z,95923.00
2023-01-18T14:21:05.798Z,95934.00
2023-01-18T14:26:31.037Z,95933.00
2023-01-18T14:31:57.374Z,95941.00
2023-01-18T14:37:28.793Z,95950.00
2023-01-18T14:43:01.827Z,95964.00
2023-01-18T14:48:25.085Z,95987.00
2023-01-18T14:53:52.957Z,95993.00
2023-01-18T14:59:22.082Z,96007.00
2023-01-18T15:04:45.784Z,96022.00
2023-01-18T15:10:09.061Z,96034.00
2023-01-18T15:15:33.977Z,96038.00
2023-01-18T15:21:02.736Z,96044.00
2023-01-18T15:26:45.001Z,96058.00
2023-01-18T15:32:16.546Z,96067.00
2023-01-18T15:37:38.173Z,96078.00
2023-01-18T15:43:28.933Z,96090.00
2023-01-18T15:48:54.857Z,96097.00
2023-01-18T15:54:28.628Z,96110.00
2023-01-18T15:59:50.424Z,96123.00
2023-01-18T16:05:22.105Z,96127.00
2023-01-18T16:10:55.316Z,96151.00
2023-01-18T16:16:22.548Z,96151.00
2023-01-18T16:21:54.412Z,96155.00
2023-01-18T16:27:19.262Z,96175.00
2023-01-18T16:32:40.711Z,96181.00
2023-01-18T16:38:02.504Z,96190.00
2023-01-18T16:43:29.573Z,96214.00
2023-01-18T16:48:51.764Z,96218.00
2023-01-18T16:54:13.289Z,96231.00
2023-01-18T16:59:34.820Z,96246.00
2023-01-18T17:04:56.403Z,96249.00
2023-01-18T17:10:36.431Z,96256.00
2023-01-18T17:15:57.758Z,96283.00
2023-01-18T17:21:19.259Z,96284.00
2023-01-18T17:26:42.247Z,96290.00
2023-01-18T17:32:03.716Z,96301.00
2023-01-18T17:37:25.256Z,96313.00
2023-01-18T17:42:47.114Z,96311.00
2023-01-18T17:48:09.041Z,96336.00
2023-01-18T17:53:30.474Z,96341.00
2023-01-18T17:58:53.731Z,96357.00
2023-01-18T18:04:15.291Z,96372.00
2023-01-18T18:09:40.744Z,96369.00
2023-01-18T18:15:03.086Z,96382.00
2023-01-18T18:20:24.886Z,96396.00
2023-01-18T18:25:48.903Z,96402.00
2023-01-18T18:31:16.196Z,96412.00
2023-01-18T18:36:37.722Z,96412.00
2023-01-18T18:42:02.422Z,96408.00
2023-01-18T18:47:23.927Z,96421.00
2023-01-18T18:52:45.574Z,96438.00
2023-01-18T18:58:07.155Z,96449.00
2023-01-18T19:03:28.787Z,96457.00
2023-01-18T19:08:50.928Z,96463.00
2023-01-18T19:14:14.804Z,96475.00
2023-01-18T19:19:36.190Z,96488.00
2023-01-18T19:24:57.835Z,96475.00
2023-01-18T19:30:19.431Z,96477.00
2023-01-18T19:35:44.069Z,96483.00
2023-01-18T19:41:05.690Z,96493.00
2023-01-18T19:46:27.292Z,96503.00
2023-01-18T19:51:48.949Z,96521.00
2023-01-18T19:57:10.544Z,96531.00
2023-01-18T20:02:32.366Z,96534.00
2023-01-18T20:07:54.169Z,96544.00
2023-01-18T20:13:15.564Z,96543.00
2023-01-18T20:18:40.941Z,96553.00
2023-01-18T20:24:02.367Z,96541.00
2023-01-18T20:29:24.399Z,96562.00
2023-01-18T20:34:47.280Z,96577.00
2023-01-18T20:40:09.652Z,96569.00
2023-01-18T20:45:31.584Z,96589.00
2023-01-18T20:50:53.005Z,96593.00
2023-01-18T20:56:28.363Z,96597.00
2023-01-18T21:01:51.154Z,96600.00
2023-01-18T21:07:12.595Z,96601.00
2023-01-18T21:12:34.174Z,96598.00
2023-01-18T21:17:55.604Z,96600.00
2023-01-18T21:23:17.819Z,96611.00
2023-01-18T21:28:39.518Z,96607.00
2023-01-18T21:34:01.216Z,96616.00
2023-01-18T21:39:25.573Z,96611.00
2023-01-18T21:45:05.325Z,96623.00
2023-01-18T21:50:45.812Z,96623.00
2023-01-18T21:56:07.353Z,96636.00
2023-01-18T22:01:34.580Z,96635.00
2023-01-18T22:06:59.376Z,96640.00
2023-01-18T22:12:20.924Z,96648.00
2023-01-18T22:17:42.297Z,96648.00
2023-01-18T22:23:03.882Z,96649.00
2023-01-18T22:28:25.423Z,96655.00
2023-01-18T22:33:48.429Z,96662.00
2023-01-18T22:39:11.969Z,96658.00
2023-01-18T22:44:33.354Z,96674.00
2023-01-18T22:49:55.029Z,96692.00
2023-01-18T22:55:16.625Z,96682.00
2023-01-18T23:00:38.360Z,96689.00
2023-01-18T23:06:00.914Z,96689.00
2023-01-18T23:11:25.915Z,96685.00
2023-01-18T23:17:07.632Z,96689.00
2023-01-18T23:22:29.065Z,96696.00
2023-01-18T23:27:50.588Z,96701.00
2023-01-18T23:33:12.206Z,96709.00
2023-01-18T23:38:52.430Z,96701.00
2023-01-18T23:44:32.615Z,96724.00
2023-01-18T23:50:12.769Z,96727.00
2023-01-18T23:55:34.252Z,96743.00
